Time;durP1;ratioP1;P1;durP2;ratioP2;P2;SDS_P1;SDS_P2;PMS_P1;PMS_P2;Temp;Humidity;BMP_temperature;BMP_pressure;BME280_temperature;BME280_humidity;BME280_pressure;Samples;Min_cycle;Max_cycle;Signal;HPM_P1;HPM_P2
2022/10/03 00:00:14;;;;;;;0.70;0.70;;;14.40;99.90;;;;;;5021945;28;20235;-62
2022/10/03 00:03:05;;;;;;;0.77;0.77;;;14.40;99.90;;;;;;5021473;28;20224;-62
2022/10/03 00:05:45;;;;;;;0.70;0.70;;;14.30;99.90;;;;;;5021328;28;20202;-62
2022/10/03 00:08:27;;;;;;;0.83;0.83;;;14.20;99.90;;;;;;5022588;28;20223;-62
2022/10/03 00:11:05;;;;;;;0.80;0.80;;;14.10;99.90;;;;;;5020848;28;20207;-63
2022/10/03 00:13:42;;;;;;;0.70;0.70;;;14.00;99.90;;;;;;5013559;28;20739;-62
2022/10/03 00:16:18;;;;;;;0.90;0.90;;;14.00;99.90;;;;;;5022652;28;20855;-63
2022/10/03 00:18:58;;;;;;;0.63;0.63;;;14.10;99.90;;;;;;5008282;28;20570;-61
2022/10/03 00:21:37;;;;;;;0.90;0.90;;;14.20;99.90;;;;;;5021273;28;20227;-63
2022/10/03 00:24:17;;;;;;;0.70;0.70;;;14.10;99.90;;;;;;5022202;28;20241;-62
2022/10/03 00:26:49;;;;;;;0.70;0.70;;;14.00;99.90;;;;;;5013019;28;20207;-63
2022/10/03 00:29:46;;;;;;;0.80;0.80;;;14.00;99.90;;;;;;5025327;28;20667;-64
2022/10/03 00:32:26;;;;;;;0.67;0.67;;;14.00;99.90;;;;;;5009188;28;20202;-62
2022/10/03 00:35:13;;;;;;;0.80;0.80;;;13.80;99.90;;;;;;5016556;28;20207;-63
2022/10/03 00:37:46;;;;;;;0.77;0.77;;;13.80;99.90;;;;;;5018235;28;20201;-61
2022/10/03 00:40:36;;;;;;;1.07;0.80;;;13.80;99.90;;;;;;5017486;28;20209;-61
2022/10/03 00:43:53;;;;;;;0.80;0.80;;;13.80;99.90;;;;;;5015927;28;20225;-63
2022/10/03 00:46:36;;;;;;;0.57;0.57;;;13.80;99.90;;;;;;4995674;28;20730;-62
2022/10/03 00:49:32;;;;;;;0.40;0.40;;;13.70;99.90;;;;;;5019891;28;20291;-61
2022/10/03 00:52:15;;;;;;;0.67;0.67;;;13.70;99.90;;;;;;5017282;28;20196;-62
2022/10/03 00:54:56;;;;;;;0.70;0.70;;;13.80;99.90;;;;;;5025314;28;20204;-64
2022/10/03 00:57:42;;;;;;;0.60;0.60;;;13.70;99.90;;;;;;5024999;28;20209;-62
2022/10/03 01:00:18;;;;;;;0.50;0.50;;;13.80;99.90;;;;;;5024728;28;20208;-62
2022/10/03 01:03:14;;;;;;;0.63;0.63;;;13.80;99.90;;;;;;5022954;28;20704;-62
2022/10/03 01:05:59;;;;;;;0.50;0.50;;;13.80;99.90;;;;;;5018539;28;20255;-63
2022/10/03 01:08:39;;;;;;;0.60;0.60;;;13.90;99.90;;;;;;5028430;28;20218;-63
2022/10/03 01:11:15;;;;;;;0.67;0.67;;;13.90;99.90;;;;;;5023889;28;20219;-62
2022/10/03 01:13:56;;;;;;;0.80;0.80;;;14.00;99.90;;;;;;5020288;28;20243;-62
2022/10/03 01:16:38;;;;;;;0.47;0.47;;;14.00;99.90;;;;;;5026350;28;20204;-65
2022/10/03 01:19:26;;;;;;;0.90;0.80;;;14.10;99.90;;;;;;5027120;28;20205;-62
2022/10/03 01:22:04;;;;;;;0.90;0.87;;;14.00;99.90;;;;;;5016367;28;20595;-62
2022/10/03 01:24:52;;;;;;;0.70;0.70;;;14.00;99.90;;;;;;5023948;28;20545;-63
2022/10/03 01:27:28;;;;;;;0.70;0.70;;;13.90;99.90;;;;;;5030509;28;20209;-61
2022/10/03 01:32:52;;;;;;;0.90;0.90;;;14.10;99.90;;;;;;5017532;28;20298;-61
2022/10/03 01:35:39;;;;;;;0.80;0.80;;;14.20;99.90;;;;;;5026210;28;20254;-62
2022/10/03 01:38:19;;;;;;;0.70;0.70;;;14.20;99.90;;;;;;5022387;28;20221;-62
2022/10/03 01:40:53;;;;;;;0.70;0.70;;;14.10;99.90;;;;;;5015317;28;20204;-65
2022/10/03 01:43:24;;;;;;;0.67;0.67;;;14.00;99.90;;;;;;5029844;28;20228;-62
2022/10/03 01:46:08;;;;;;;0.53;0.53;;;13.90;99.90;;;;;;5021937;28;20201;-62
2022/10/03 01:48:43;;;;;;;0.50;0.50;;;13.80;99.90;;;;;;5023659;28;20651;-61
2022/10/03 01:51:15;;;;;;;0.60;0.60;;;13.90;99.90;;;;;;5023799;28;20205;-63
2022/10/03 01:53:54;;;;;;;0.50;0.50;;;14.00;99.90;;;;;;5023876;28;20653;-62
2022/10/03 01:56:28;;;;;;;0.60;0.60;;;14.10;99.90;;;;;;5022768;28;20740;-62
2022/10/03 01:59:05;;;;;;;0.80;0.80;;;14.10;99.90;;;;;;5024410;28;20192;-61
2022/10/03 02:01:46;;;;;;;0.80;0.80;;;14.20;99.90;;;;;;5020511;28;20224;-62
2022/10/03 02:04:20;;;;;;;0.80;0.80;;;14.20;99.90;;;;;;5010031;28;20805;-61
2022/10/03 02:06:57;;;;;;;0.80;0.80;;;14.20;99.90;;;;;;5006844;28;20204;-62
2022/10/03 02:09:33;;;;;;;0.80;0.80;;;14.40;99.90;;;;;;5008930;28;20207;-62
2022/10/03 02:12:08;;;;;;;0.90;0.90;;;14.30;99.90;;;;;;5005749;28;20206;-62
2022/10/03 02:14:45;;;;;;;0.80;0.80;;;14.20;99.90;;;;;;5009698;28;21655;-62
2022/10/03 02:17:25;;;;;;;0.90;0.90;;;14.20;99.90;;;;;;5011699;28;20271;-62
2022/10/03 02:20:04;;;;;;;0.90;0.90;;;14.20;99.90;;;;;;5008084;28;20213;-64
2022/10/03 02:22:35;;;;;;;0.90;0.90;;;14.20;99.90;;;;;;5010282;28;20265;-64
2022/10/03 02:25:29;;;;;;;0.70;0.70;;;14.10;99.90;;;;;;5013431;28;20679;-61
2022/10/03 02:28:34;;;;;;;0.73;0.73;;;14.10;99.90;;;;;;5006415;28;20212;-63
2022/10/03 02:31:41;;;;;;;0.53;0.53;;;14.20;99.90;;;;;;5007950;28;20205;-62
2022/10/03 02:34:29;;;;;;;0.70;0.70;;;14.10;99.90;;;;;;5009459;28;20232;-62
2022/10/03 02:37:27;;;;;;;0.80;0.80;;;14.00;99.90;;;;;;5010127;28;20213;-62
2022/10/03 02:40:10;;;;;;;0.53;0.53;;;14.00;99.90;;;;;;5012697;28;20571;-62
2022/10/03 02:43:09;;;;;;;0.80;0.80;;;14.00;99.90;;;;;;5016805;28;20222;-63
2022/10/03 02:46:20;;;;;;;0.80;0.80;;;14.00;99.90;;;;;;4999848;28;20220;-62
2022/10/03 02:49:11;;;;;;;1.00;1.00;;;14.00;99.90;;;;;;5007008;28;20196;-62
2022/10/03 02:52:10;;;;;;;1.00;1.00;;;13.90;99.90;;;;;;5007466;28;20198;-62
2022/10/03 02:55:31;;;;;;;0.90;0.90;;;13.80;99.90;;;;;;5014457;28;20213;-62
2022/10/03 02:58:34;;;;;;;0.70;0.70;;;13.80;99.90;;;;;;5004008;28;20201;-62
2022/10/03 03:01:35;;;;;;;0.60;0.60;;;13.80;99.90;;;;;;5000844;28;20209;-62
2022/10/03 03:04:40;;;;;;;0.63;0.63;;;13.70;99.90;;;;;;5007301;28;20320;-63
2022/10/03 03:07:37;;;;;;;0.70;0.70;;;13.60;99.90;;;;;;4986805;28;20211;-62
2022/10/03 03:10:29;;;;;;;0.63;0.63;;;13.60;99.90;;;;;;5005528;28;20209;-63
2022/10/03 03:13:31;;;;;;;0.60;0.60;;;13.60;99.90;;;;;;5011826;28;20221;-64
2022/10/03 03:16:38;;;;;;;1.10;0.80;;;13.50;99.90;;;;;;5010709;28;20653;-63
2022/10/03 03:19:17;;;;;;;1.50;0.60;;;13.40;99.90;;;;;;5010353;28;20664;-63
2022/10/03 03:21:53;;;;;;;0.50;0.50;;;13.30;99.90;;;;;;5010966;28;20854;-62
2022/10/03 03:24:40;;;;;;;0.77;0.60;;;13.30;99.90;;;;;;5008503;28;20245;-64
2022/10/03 03:27:35;;;;;;;0.77;0.77;;;13.20;99.90;;;;;;5010839;28;20288;-63
2022/10/03 03:30:08;;;;;;;0.60;0.60;;;13.20;99.90;;;;;;5011553;28;20224;-63
2022/10/03 03:32:53;;;;;;;0.77;0.73;;;13.00;99.90;;;;;;5013092;28;20710;-62
2022/10/03 03:35:32;;;;;;;0.50;0.50;;;13.00;99.90;;;;;;5021701;28;20289;-63
2022/10/03 03:38:09;;;;;;;1.90;0.63;;;12.90;99.90;;;;;;5023739;28;20211;-62
2022/10/03 03:40:45;;;;;;;0.70;0.70;;;12.80;99.90;;;;;;5020301;28;20205;-61
2022/10/03 03:43:28;;;;;;;0.60;0.60;;;12.70;99.90;;;;;;5023513;28;20238;-61
2022/10/03 03:46:08;;;;;;;0.50;0.50;;;12.60;99.90;;;;;;5017194;28;20533;-61
2022/10/03 03:49:00;;;;;;;0.60;0.60;;;12.60;99.90;;;;;;5021408;28;20243;-64
2022/10/03 03:51:33;;;;;;;0.40;0.40;;;12.50;99.90;;;;;;5026592;28;20235;-62
2022/10/03 03:54:39;;;;;;;0.50;0.50;;;12.50;99.90;;;;;;5020409;28;20595;-61
2022/10/03 03:57:28;;;;;;;0.73;0.60;;;12.40;99.90;;;;;;5012811;28;20200;-64
2022/10/03 04:00:07;;;;;;;0.83;0.60;;;12.40;99.90;;;;;;5011934;28;20216;-61
2022/10/03 04:02:47;;;;;;;0.70;0.70;;;12.30;99.90;;;;;;5021779;28;20307;-64
2022/10/03 04:05:27;;;;;;;0.57;0.50;;;12.40;99.90;;;;;;5023552;28;20300;-63
2022/10/03 04:08:12;;;;;;;0.57;0.57;;;12.20;99.90;;;;;;5023990;28;20262;-61
2022/10/03 04:10:53;;;;;;;0.90;0.60;;;12.30;99.90;;;;;;5019572;28;21558;-64
2022/10/03 04:13:39;;;;;;;0.60;0.60;;;12.40;99.90;;;;;;5021252;28;20217;-64
2022/10/03 04:19:19;;;;;;;0.60;0.60;;;12.30;99.90;;;;;;5022017;28;20212;-63
2022/10/03 04:22:03;;;;;;;0.60;0.60;;;12.10;99.90;;;;;;5015435;28;20255;-61
2022/10/03 04:24:49;;;;;;;0.40;0.40;;;12.00;99.90;;;;;;5026317;28;20224;-62
2022/10/03 04:27:31;;;;;;;0.60;0.60;;;12.00;99.90;;;;;;5022715;28;20211;-63
2022/10/03 04:30:07;;;;;;;0.60;0.60;;;12.00;99.90;;;;;;5014983;28;20200;-61
2022/10/03 04:32:55;;;;;;;0.40;0.40;;;12.00;99.90;;;;;;5025075;28;20253;-61
2022/10/03 04:35:43;;;;;;;0.57;0.57;;;11.90;99.90;;;;;;5026138;28;20256;-63
2022/10/03 04:38:20;;;;;;;0.50;0.50;;;11.90;99.90;;;;;;5026675;28;20205;-63
2022/10/03 04:40:57;;;;;;;0.60;0.60;;;11.90;99.90;;;;;;5015708;28;20200;-63
2022/10/03 04:43:37;;;;;;;0.60;0.60;;;11.90;99.90;;;;;;5025699;28;20232;-62
2022/10/03 04:46:23;;;;;;;0.50;0.50;;;11.80;99.90;;;;;;5021454;28;20216;-62
2022/10/03 04:48:56;;;;;;;0.60;0.60;;;11.90;99.90;;;;;;5019361;28;20699;-62
2022/10/03 04:51:41;;;;;;;0.50;0.50;;;11.80;99.90;;;;;;5027705;28;20296;-61
2022/10/03 04:54:20;;;;;;;0.50;0.50;;;11.80;99.90;;;;;;5026278;28;20223;-63
2022/10/03 04:56:53;;;;;;;0.63;0.63;;;11.90;99.90;;;;;;5006471;28;20205;-62
2022/10/03 04:59:46;;;;;;;2.23;1.10;;;11.80;99.90;;;;;;5026637;28;20201;-63
2022/10/03 05:02:32;;;;;;;1.60;0.90;;;11.90;99.90;;;;;;5023511;28;20219;-64
2022/10/03 05:05:16;;;;;;;0.70;0.70;;;11.90;99.90;;;;;;5020963;28;20201;-61
2022/10/03 05:07:53;;;;;;;0.63;0.63;;;11.90;99.90;;;;;;5029265;28;20198;-64
2022/10/03 05:10:30;;;;;;;1.60;0.70;;;11.90;99.90;;;;;;5018823;28;20215;-65
2022/10/03 05:13:07;;;;;;;0.53;0.53;;;11.90;99.90;;;;;;5028391;28;20239;-63
2022/10/03 05:15:42;;;;;;;0.70;0.70;;;12.00;99.90;;;;;;5024681;28;20205;-62
2022/10/03 05:18:17;;;;;;;0.63;0.63;;;12.10;99.90;;;;;;5025498;28;20211;-62
2022/10/03 05:20:55;;;;;;;0.50;0.50;;;12.10;99.90;;;;;;5028534;28;20208;-63
2022/10/03 05:23:34;;;;;;;0.70;0.70;;;12.20;99.90;;;;;;5025615;28;20596;-62
2022/10/03 05:26:11;;;;;;;0.73;0.73;;;12.30;99.90;;;;;;5025140;28;20211;-63
2022/10/03 05:28:45;;;;;;;0.50;0.50;;;12.30;99.90;;;;;;5023923;28;20205;-63
2022/10/03 05:31:28;;;;;;;0.73;0.73;;;12.30;99.90;;;;;;5026469;28;20205;-62
2022/10/03 05:34:03;;;;;;;0.70;0.70;;;12.30;99.90;;;;;;5021897;28;20699;-61
2022/10/03 05:36:45;;;;;;;0.80;0.80;;;12.30;99.90;;;;;;5025238;28;20208;-63
2022/10/03 05:39:28;;;;;;;1.23;1.20;;;12.30;99.90;;;;;;5023949;28;20215;-62
2022/10/03 05:42:15;;;;;;;1.50;1.40;;;12.20;99.90;;;;;;5018032;28;20205;-63
2022/10/03 05:44:46;;;;;;;2.30;2.20;;;12.20;99.90;;;;;;5028654;28;20298;-63
2022/10/03 05:50:35;;;;;;;1.33;1.27;;;12.10;99.90;;;;;;5027884;28;20211;-62
2022/10/03 05:53:23;;;;;;;1.00;1.00;;;12.20;99.90;;;;;;5024010;28;20235;-62
2022/10/03 05:56:04;;;;;;;0.97;0.97;;;12.20;99.90;;;;;;5021145;28;20672;-61
2022/10/03 05:58:56;;;;;;;0.77;0.70;;;12.20;99.90;;;;;;5028722;28;20208;-63
2022/10/03 06:01:50;;;;;;;0.70;0.70;;;12.20;99.90;;;;;;5018597;28;20202;-61
2022/10/03 06:04:52;;;;;;;1.27;1.17;;;12.20;99.90;;;;;;5022132;28;20598;-63
2022/10/03 06:07:25;;;;;;;0.80;0.80;;;12.10;99.90;;;;;;5019836;28;20673;-65
2022/10/03 06:10:24;;;;;;;0.90;0.90;;;12.10;99.90;;;;;;5016498;28;20200;-61
2022/10/03 06:13:10;;;;;;;0.80;0.80;;;12.00;99.90;;;;;;5024266;28;20327;-62
2022/10/03 06:15:54;;;;;;;0.90;0.90;;;12.10;99.90;;;;;;5034288;28;20220;-62
2022/10/03 06:19:05;;;;;;;1.33;0.90;;;12.20;99.90;;;;;;5029845;28;20199;-64
2022/10/03 06:22:20;;;;;;;0.87;0.87;;;12.10;99.90;;;;;;5025423;28;20258;-61
2022/10/03 06:25:21;;;;;;;1.00;1.00;;;12.00;99.90;;;;;;5017438;28;20202;-63
2022/10/03 06:28:21;;;;;;;0.90;0.90;;;12.00;99.90;;;;;;5011062;28;20223;-61
2022/10/03 06:31:13;;;;;;;0.90;0.90;;;12.00;99.90;;;;;;5028604;28;20674;-62
2022/10/03 06:34:11;;;;;;;0.80;0.80;;;12.00;99.90;;;;;;5023564;28;20239;-62
2022/10/03 06:37:01;;;;;;;0.70;0.70;;;12.00;99.90;;;;;;5022187;28;20224;-63
2022/10/03 06:40:04;;;;;;;0.80;0.80;;;12.00;99.90;;;;;;5021611;28;20209;-64
2022/10/03 06:42:46;;;;;;;0.83;0.83;;;12.00;99.90;;;;;;5020328;28;20205;-61
2022/10/03 06:45:59;;;;;;;1.20;1.10;;;12.00;99.90;;;;;;5023787;28;20218;-61
2022/10/03 06:48:55;;;;;;;0.63;0.63;;;12.00;99.90;;;;;;5014947;28;20215;-63
2022/10/03 06:51:43;;;;;;;0.70;0.70;;;12.00;99.90;;;;;;5028754;28;20205;-62
2022/10/03 06:55:03;;;;;;;0.80;0.80;;;12.10;99.90;;;;;;5024492;28;20700;-62
2022/10/03 06:57:56;;;;;;;2.37;0.87;;;12.10;99.90;;;;;;5019141;28;20220;-62
2022/10/03 07:00:39;;;;;;;0.90;0.90;;;12.20;99.90;;;;;;5023550;28;20663;-62
2022/10/03 07:03:31;;;;;;;1.10;1.10;;;12.20;99.90;;;;;;5019903;28;20232;-62
2022/10/03 07:06:39;;;;;;;1.10;1.10;;;12.20;99.90;;;;;;5017817;28;20205;-64
2022/10/03 07:09:53;;;;;;;0.90;0.90;;;12.30;99.90;;;;;;4983570;28;20217;-62
2022/10/03 07:12:47;;;;;;;0.90;0.90;;;12.40;99.90;;;;;;5020999;28;20223;-63
2022/10/03 07:15:56;;;;;;;0.97;0.90;;;12.60;99.90;;;;;;5023048;28;20204;-61
2022/10/03 07:19:06;;;;;;;1.10;1.00;;;12.90;99.90;;;;;;4951896;28;20214;-62
2022/10/03 07:22:23;;;;;;;1.30;1.30;;;13.00;99.90;;;;;;5021545;28;20201;-63
2022/10/03 07:25:28;;;;;;;1.20;1.20;;;13.10;99.90;;;;;;5016156;28;20224;-63
2022/10/03 07:28:27;;;;;;;1.50;1.40;;;13.10;99.90;;;;;;5014989;28;20204;-63
2022/10/03 07:31:08;;;;;;;1.23;1.13;;;13.20;99.90;;;;;;5010827;28;20722;-61
2022/10/03 07:33:51;;;;;;;1.00;1.00;;;13.30;99.90;;;;;;5021789;28;20221;-62
2022/10/03 07:40:07;;;;;;;1.10;1.10;;;13.30;99.90;;;;;;5022543;28;20211;-61
2022/10/03 07:43:11;;;;;;;1.20;1.20;;;13.10;99.90;;;;;;5019650;28;20224;-63
2022/10/03 07:45:41;;;;;;;1.30;1.30;;;12.80;99.90;;;;;;5021006;28;20200;-60
2022/10/03 07:48:50;;;;;;;1.00;1.00;;;12.80;99.90;;;;;;5023137;28;20232;-62
2022/10/03 07:51:26;;;;;;;1.10;1.10;;;12.80;99.90;;;;;;5017506;28;20205;-62
2022/10/03 07:54:20;;;;;;;1.30;1.30;;;12.80;99.90;;;;;;5021765;28;20224;-63
2022/10/03 07:57:07;;;;;;;1.30;1.30;;;12.80;99.90;;;;;;5060303;22;20219;-67
2022/10/03 07:59:52;;;;;;;1.33;1.30;;;12.80;99.90;;;;;;5060869;28;20204;-68
2022/10/03 08:02:37;;;;;;;1.10;1.10;;;12.90;99.90;;;;;;5076250;28;20203;-67
2022/10/03 08:05:22;;;;;;;1.10;1.10;;;12.90;99.90;;;;;;5062370;28;20596;-68
2022/10/03 08:08:27;;;;;;;1.13;1.13;;;13.00;99.90;;;;;;5056388;28;20712;-67
2022/10/03 08:11:40;;;;;;;1.30;1.30;;;13.10;99.90;;;;;;5040844;28;20203;-67
2022/10/03 08:14:18;;;;;;;1.80;1.70;;;13.30;99.90;;;;;;5063273;28;20241;-68
2022/10/03 08:17:21;;;;;;;1.57;1.47;;;13.40;99.90;;;;;;5074535;28;20257;-66
2022/10/03 08:20:18;;;;;;;1.43;1.37;;;13.40;99.90;;;;;;5049889;28;20199;-68
2022/10/03 08:22:58;;;;;;;1.80;1.70;;;13.40;99.90;;;;;;5043116;28;20206;-66
2022/10/03 08:25:33;;;;;;;1.63;1.57;;;13.40;99.90;;;;;;5054841;28;20572;-67
2022/10/03 08:28:28;;;;;;;2.43;2.33;;;13.60;99.90;;;;;;5053465;28;20310;-66
2022/10/03 08:31:24;;;;;;;2.30;2.20;;;13.70;99.90;;;;;;5063858;28;20199;-66
2022/10/03 08:34:17;;;;;;;2.10;2.00;;;13.60;99.90;;;;;;5063693;28;20227;-67
2022/10/03 08:37:14;;;;;;;1.70;1.60;;;13.80;99.90;;;;;;5060091;28;20224;-68
2022/10/03 08:39:59;;;;;;;1.30;1.30;;;14.10;99.90;;;;;;5055032;28;20218;-66
2022/10/03 08:42:52;;;;;;;1.57;1.47;;;14.30;99.90;;;;;;5058171;28;20207;-68
2022/10/03 08:45:46;;;;;;;1.40;1.40;;;14.40;99.90;;;;;;5056881;28;20592;-63
2022/10/03 08:48:43;;;;;;;1.70;1.60;;;14.40;99.90;;;;;;5055047;28;20238;-68
2022/10/03 08:52:07;;;;;;;2.10;1.37;;;14.30;99.90;;;;;;5058526;28;20204;-66
2022/10/03 08:55:06;;;;;;;1.30;1.30;;;14.50;99.90;;;;;;5052277;28;20204;-67
2022/10/03 08:58:10;;;;;;;1.43;1.37;;;14.80;99.90;;;;;;5061817;28;20227;-67
2022/10/03 09:00:57;;;;;;;1.20;1.20;;;14.90;99.90;;;;;;5055656;28;20200;-67
2022/10/03 09:03:54;;;;;;;1.00;1.00;;;15.10;99.90;;;;;;5060458;28;20219;-68
2022/10/03 09:07:00;;;;;;;1.10;1.10;;;15.20;99.90;;;;;;5053505;28;20196;-66
2022/10/03 09:10:06;;;;;;;1.10;1.10;;;15.40;99.90;;;;;;4983014;28;20577;-66
2022/10/03 09:12:51;;;;;;;1.10;1.10;;;15.00;99.90;;;;;;4978720;28;20202;-66
2022/10/03 09:16:14;;;;;;;1.20;1.20;;;14.80;99.90;;;;;;4974309;28;20199;-66
2022/10/03 09:18:55;;;;;;;1.10;1.10;;;14.50;99.90;;;;;;4976484;28;20203;-68
2022/10/03 09:22:04;;;;;;;1.23;1.23;;;14.50;99.90;;;;;;4971090;28;20235;-67
2022/10/03 09:25:14;;;;;;;1.17;1.17;;;14.70;99.90;;;;;;4974295;28;20232;-67
2022/10/03 09:28:16;;;;;;;1.20;1.20;;;15.00;99.90;;;;;;4955951;28;20602;-67
2022/10/03 09:30:53;;;;;;;1.23;1.23;;;15.10;99.90;;;;;;4959518;28;20202;-66
2022/10/03 09:33:58;;;;;;;1.37;1.37;;;14.80;99.90;;;;;;4973129;28;20277;-66
2022/10/03 09:37:01;;;;;;;1.30;1.30;;;14.90;99.90;;;;;;4975209;28;20207;-66
2022/10/03 09:40:21;;;;;;;1.53;1.43;;;15.00;99.90;;;;;;4988119;28;20204;-65
2022/10/03 09:43:18;;;;;;;1.10;1.10;;;15.10;99.90;;;;;;5056609;28;20325;-68
2022/10/03 09:46:31;;;;;;;1.47;1.37;;;15.40;99.90;;;;;;5056955;28;20227;-66
2022/10/03 09:49:32;;;;;;;1.27;1.27;;;15.40;99.90;;;;;;5009753;28;20544;-67
2022/10/03 09:52:17;;;;;;;1.10;1.10;;;15.10;99.90;;;;;;5056469;28;20217;-67
2022/10/03 09:55:05;;;;;;;1.50;1.40;;;15.00;99.90;;;;;;5063711;28;20198;-66
2022/10/03 09:58:01;;;;;;;1.23;1.23;;;15.20;99.90;;;;;;5053058;28;20235;-69
2022/10/03 10:00:40;;;;;;;1.20;1.20;;;15.60;99.90;;;;;;5057545;28;20196;-67
2022/10/03 10:03:55;;;;;;;1.30;1.30;;;15.90;99.90;;;;;;5051667;28;20294;-67
2022/10/03 10:06:38;;;;;;;1.53;1.43;;;16.10;99.90;;;;;;5056723;28;20196;-66
2022/10/03 10:09:36;;;;;;;1.70;1.60;;;16.10;99.90;;;;;;5055940;28;20217;-68
2022/10/03 10:12:33;;;;;;;1.60;1.50;;;15.80;99.90;;;;;;5059774;28;20554;-68
2022/10/03 10:15:20;;;;;;;1.30;1.30;;;16.00;99.90;;;;;;5049962;28;20218;-66
2022/10/03 10:18:27;;;;;;;1.53;1.43;;;16.20;99.90;;;;;;5054225;28;20219;-68
2022/10/03 10:21:29;;;;;;;1.30;1.20;;;16.60;99.90;;;;;;5055626;28;20547;-67
2022/10/03 10:24:13;;;;;;;1.50;1.40;;;16.70;99.90;;;;;;5052856;28;20218;-67
2022/10/03 10:27:19;;;;;;;1.27;1.27;;;16.40;99.90;;;;;;5057839;28;20225;-66
2022/10/03 10:30:37;;;;;;;1.40;1.40;;;16.30;99.90;;;;;;4985610;28;20235;-67
2022/10/03 10:33:35;;;;;;;1.20;1.20;;;16.50;99.90;;;;;;4988505;28;20220;-67
2022/10/03 10:36:52;;;;;;;1.33;1.30;;;16.50;99.90;;;;;;5048558;28;20253;-68
2022/10/03 10:40:05;;;;;;;1.40;1.40;;;16.60;99.90;;;;;;5051977;28;20210;-67
2022/10/03 10:43:16;;;;;;;1.10;1.10;;;16.80;99.90;;;;;;5054542;28;20744;-67
2022/10/03 10:45:49;;;;;;;1.20;1.20;;;17.00;99.90;;;;;;5053909;28;20699;-67
2022/10/03 10:49:01;;;;;;;1.10;1.10;;;17.10;99.90;;;;;;5069571;28;20224;-67
2022/10/03 10:51:57;;;;;;;1.10;1.10;;;17.10;99.90;;;;;;5074326;28;20199;-67
2022/10/03 10:55:04;;;;;;;1.20;1.20;;;17.10;99.90;;;;;;5062532;28;20730;-68
2022/10/03 10:58:19;;;;;;;1.10;1.10;;;17.10;99.90;;;;;;5040673;28;20231;-68
2022/10/03 11:01:21;;;;;;;1.30;1.20;;;17.20;99.90;;;;;;5060056;28;20199;-68
2022/10/03 11:04:39;;;;;;;1.40;1.30;;;17.10;99.90;;;;;;5054460;28;20199;-66
2022/10/03 11:07:31;;;;;;;1.47;1.37;;;17.00;99.90;;;;;;5056485;28;20224;-67
2022/10/03 11:10:30;;;;;;;1.10;1.10;;;17.10;99.90;;;;;;5061612;28;20203;-67
2022/10/03 11:13:33;;;;;;;1.10;1.10;;;17.30;99.90;;;;;;5058147;28;20680;-68
2022/10/03 11:16:45;;;;;;;1.30;1.20;;;17.20;99.90;;;;;;5056064;28;20587;-66
2022/10/03 11:19:49;;;;;;;1.43;1.27;;;17.10;99.90;;;;;;5053330;28;20200;-68
2022/10/03 11:22:52;;;;;;;1.00;1.00;;;17.20;99.90;;;;;;5062270;28;20195;-66
2022/10/03 11:25:50;;;;;;;0.90;0.90;;;17.30;99.90;;;;;;5054425;28;20219;-67
2022/10/03 11:29:07;;;;;;;1.40;1.30;;;17.40;99.90;;;;;;5059462;28;20341;-68
2022/10/03 11:32:32;;;;;;;1.10;1.10;;;17.70;99.90;;;;;;5036329;28;20214;-66
2022/10/03 11:35:49;;;;;;;1.00;1.00;;;18.00;99.90;;;;;;4971657;28;20194;-67
2022/10/03 11:38:20;;;;;;;1.10;1.10;;;18.20;99.90;;;;;;4993201;28;20743;-67
2022/10/03 11:41:00;;;;;;;1.00;1.00;;;18.30;99.90;;;;;;4988597;28;20202;-68
2022/10/03 11:44:06;;;;;;;1.20;1.10;;;18.40;99.90;;;;;;4992879;28;20202;-67
2022/10/03 11:46:50;;;;;;;1.10;1.10;;;18.30;99.90;;;;;;4984428;28;20256;-67
2022/10/03 11:49:38;;;;;;;1.20;1.20;;;18.00;99.90;;;;;;4993223;28;20284;-66
2022/10/03 11:52:19;;;;;;;1.03;1.03;;;17.60;99.90;;;;;;4991238;28;20293;-66
2022/10/03 11:54:49;;;;;;;1.00;1.00;;;17.50;99.90;;;;;;5001466;28;20198;-67
2022/10/03 11:57:25;;;;;;;1.50;1.00;;;17.90;99.90;;;;;;5004838;28;20238;-67
2022/10/03 11:59:59;;;;;;;1.20;1.13;;;18.10;99.90;;;;;;5010563;28;20197;-67
2022/10/03 12:02:59;;;;;;;1.13;1.13;;;18.20;99.90;;;;;;5011820;28;20201;-67
2022/10/03 12:05:38;;;;;;;0.93;0.93;;;18.00;99.90;;;;;;5005245;28;20245;-67
2022/10/03 12:11:12;;;;;;;0.97;0.97;;;18.00;99.90;;;;;;5052855;28;20274;-68
2022/10/03 12:13:49;;;;;;;1.30;1.20;;;18.20;99.90;;;;;;5060126;28;20711;-67
2022/10/03 12:16:26;;;;;;;1.07;1.07;;;18.40;99.90;;;;;;5056187;28;20200;-67
2022/10/03 12:19:00;;;;;;;1.47;1.37;;;18.50;99.90;;;;;;5057087;28;20716;-67
2022/10/03 12:21:41;;;;;;;1.10;1.10;;;18.40;99.90;;;;;;5057448;28;20213;-67
2022/10/03 12:24:28;;;;;;;1.00;1.00;;;18.30;99.90;;;;;;5048526;28;20208;-68
2022/10/03 12:27:02;;;;;;;1.00;1.00;;;18.00;99.90;;;;;;5047060;28;20234;-69
2022/10/03 12:29:34;;;;;;;1.00;1.00;;;18.10;99.90;;;;;;5052029;28;20204;-67
2022/10/03 12:32:26;;;;;;;1.13;1.03;;;18.30;99.90;;;;;;5052859;28;20200;-66
2022/10/03 12:35:16;;;;;;;1.13;1.03;;;18.40;99.90;;;;;;5049368;28;20197;-68
2022/10/03 12:38:05;;;;;;;1.17;1.10;;;18.10;99.90;;;;;;5066558;28;20228;-68
2022/10/03 12:40:37;;;;;;;1.07;1.07;;;18.10;99.90;;;;;;5066058;28;20207;-66
2022/10/03 12:43:28;;;;;;;1.03;1.03;;;18.10;99.90;;;;;;5066857;28;20207;-67
2022/10/03 12:46:01;;;;;;;0.80;0.80;;;18.00;99.90;;;;;;5061263;28;20219;-68
2022/10/03 12:48:44;;;;;;;1.53;1.20;;;17.80;99.90;;;;;;5070498;28;20318;-68
2022/10/03 12:51:21;;;;;;;1.40;1.30;;;17.70;99.90;;;;;;5065495;28;20262;-68
2022/10/03 12:54:00;;;;;;;1.40;1.30;;;17.70;99.90;;;;;;5074224;28;20205;-67
2022/10/03 12:56:38;;;;;;;1.20;1.20;;;17.90;99.90;;;;;;5069604;28;20210;-67
2022/10/03 12:59:24;;;;;;;1.50;1.40;;;18.10;99.90;;;;;;5074742;28;20243;-67
2022/10/03 13:02:22;;;;;;;1.40;1.30;;;18.00;99.90;;;;;;5059814;28;20207;-66
2022/10/03 13:05:16;;;;;;;1.10;1.10;;;18.00;99.90;;;;;;5075612;28;20273;-67
2022/10/03 13:07:51;;;;;;;1.13;1.10;;;18.30;99.90;;;;;;5067993;28;21693;-67
2022/10/03 13:10:28;;;;;;;1.30;1.20;;;18.60;99.90;;;;;;5074855;28;20284;-67
2022/10/03 13:13:06;;;;;;;1.40;1.30;;;18.70;99.90;;;;;;5060525;28;20199;-68
2022/10/03 13:15:57;;;;;;;1.27;1.27;;;18.60;99.90;;;;;;5077900;28;20294;-67
2022/10/03 13:18:44;;;;;;;1.40;1.30;;;18.30;99.90;;;;;;5075729;28;20249;-66
2022/10/03 13:21:18;;;;;;;1.30;1.20;;;18.00;99.90;;;;;;5074194;28;20203;-67
2022/10/03 13:23:50;;;;;;;1.30;1.30;;;18.00;99.90;;;;;;5074835;28;20203;-67
2022/10/03 13:26:23;;;;;;;1.43;1.33;;;18.30;99.90;;;;;;5074494;28;20629;-67
2022/10/03 13:29:25;;;;;;;2.47;1.30;;;18.50;99.90;;;;;;5068000;28;20213;-68
2022/10/03 13:32:25;;;;;;;1.30;1.20;;;18.60;99.90;;;;;;5051891;28;20234;-67
2022/10/03 13:38:30;;;;;;;1.13;1.13;;;18.50;99.90;;;;;;5062602;28;20365;-67
2022/10/03 13:41:07;;;;;;;1.30;1.30;;;18.40;99.90;;;;;;5071601;28;20207;-67
2022/10/03 13:43:37;;;;;;;1.60;1.50;;;18.40;99.90;;;;;;5074342;28;20293;-67
2022/10/03 13:46:11;;;;;;;1.40;1.30;;;18.40;99.90;;;;;;5074176;28;20726;-67
2022/10/03 13:48:40;;;;;;;1.37;1.30;;;18.30;99.90;;;;;;5073758;28;20223;-66
2022/10/03 13:51:21;;;;;;;1.43;1.33;;;18.20;99.90;;;;;;5073265;28;20203;-67
2022/10/03 13:54:00;;;;;;;1.37;1.27;;;18.00;99.90;;;;;;5073878;28;20213;-67
2022/10/03 13:56:40;;;;;;;1.23;1.23;;;17.80;99.90;;;;;;5067929;28;20203;-66
2022/10/03 13:59:21;;;;;;;1.60;1.50;;;17.90;99.90;;;;;;5074469;28;20207;-68
2022/10/03 14:01:59;;;;;;;1.37;1.27;;;18.00;99.90;;;;;;5073988;28;20202;-66
2022/10/03 14:04:39;;;;;;;1.40;1.30;;;18.10;99.90;;;;;;5073694;28;20214;-66
2022/10/03 14:07:15;;;;;;;1.20;1.20;;;18.30;99.90;;;;;;5074215;28;20754;-66
2022/10/03 14:10:26;;;;;;;1.40;1.30;;;18.30;99.90;;;;;;5074034;28;20217;-66
2022/10/03 14:13:09;;;;;;;1.50;1.40;;;18.60;99.90;;;;;;5022959;28;20203;-66
2022/10/03 14:15:46;;;;;;;1.90;1.40;;;18.70;99.90;;;;;;5062130;28;20203;-66
2022/10/03 14:18:32;;;;;;;1.60;1.50;;;18.90;99.90;;;;;;5075727;28;20238;-66
2022/10/03 14:21:40;;;;;;;1.30;1.30;;;19.00;99.90;;;;;;5060532;28;20204;-67
2022/10/03 14:24:19;;;;;;;1.53;1.43;;;19.10;99.90;;;;;;5060684;28;20208;-66
2022/10/03 14:26:50;;;;;;;1.30;1.30;;;19.10;99.90;;;;;;5070445;28;20637;-67
2022/10/03 14:29:24;;;;;;;1.30;1.30;;;19.10;99.90;;;;;;5060651;28;20200;-67
2022/10/03 14:31:57;;;;;;;1.47;1.37;;;19.00;99.90;;;;;;5062943;28;20206;-68
2022/10/03 14:34:39;;;;;;;1.20;1.20;;;18.90;99.90;;;;;;5060945;28;20254;-65
2022/10/03 14:37:18;;;;;;;1.20;1.20;;;18.90;99.90;;;;;;5062286;28;20223;-68
2022/10/03 14:39:55;;;;;;;1.40;1.30;;;19.10;99.90;;;;;;5060100;28;20433;-65
2022/10/03 14:42:48;;;;;;;1.40;1.30;;;19.00;99.90;;;;;;5061789;28;20209;-68
2022/10/03 14:45:18;;;;;;;1.60;1.50;;;18.90;99.90;;;;;;5051662;28;20227;-66
2022/10/03 14:47:50;;;;;;;1.40;1.33;;;18.90;99.90;;;;;;5062971;28;20223;-66
2022/10/03 14:50:20;;;;;;;1.50;1.40;;;18.90;99.90;;;;;;5053289;28;20206;-66
2022/10/03 14:52:53;;;;;;;1.50;1.40;;;18.80;99.90;;;;;;5063727;28;20192;-67
2022/10/03 14:55:24;;;;;;;2.60;1.30;;;18.90;99.90;;;;;;5061342;28;20204;-66